<?xml version="1.0" encoding="utf-8"?>
<gpx xmlns:xsi="http://www.w3.org/2001/XMLSchema-instance" xmlns:xsd="http://www.w3.org/2001/XMLSchema" version="1.1" creator="Shapelink.com" xmlns="http://www.topografix.com/GPX/1/1" xmlns:gpxtpx="http://www.garmin.com/xmlschemas/TrackPointExtension/v1">
  <metadata>
    <name>Löpning 6.00 km, 2019-10-26</name>
    <desc></desc>
    <author><name>Bengt Norberg</name></author> 
    <time>2019-10-26T16:55:45Z</time>
  </metadata>
  <trk>
    <name>Löpning 6.00 km, 2019-10-26</name>
    <trkseg>
      <trkpt lat="59.819415357386" lon="16.985154328159">
        <ele>2</ele>
        <time>2019-10-26T16:55:45Z</time>
      </trkpt>
      <trkpt lat="59.81944352057" lon="16.985362869831">
        <ele>0</ele>
        <time>2019-10-26T16:55:50Z</time>
      </trkpt>
      <trkpt lat="59.819499846938" lon="16.985683058411">
        <ele>0</ele>
        <time>2019-10-26T16:55:57Z</time>
      </trkpt>
      <trkpt lat="59.819560112799" lon="16.986134004631">
        <ele>0</ele>
        <time>2019-10-26T16:56:06Z</time>
      </trkpt>
      <trkpt lat="59.819610739475" lon="16.98652719956">
        <ele>0</ele>
        <time>2019-10-26T16:56:13Z</time>
      </trkpt>
      <trkpt lat="59.819679219598" lon="16.986899188282">
        <ele>10.6</ele>
        <time>2019-10-26T16:56:21Z</time>
      </trkpt>
      <trkpt lat="59.819750968662" lon="16.987228680771">
        <ele>5</ele>
        <time>2019-10-26T16:56:28Z</time>
      </trkpt>
      <trkpt lat="59.819807462668" lon="16.987584240969">
        <ele>58.6</ele>
        <time>2019-10-26T16:56:34Z</time>
      </trkpt>
      <trkpt lat="59.819836380223" lon="16.988018926303">
        <ele>57.4</ele>
        <time>2019-10-26T16:56:43Z</time>
      </trkpt>
      <trkpt lat="59.819939645231" lon="16.98832763168">
        <ele>61.2</ele>
        <time>2019-10-26T16:56:50Z</time>
      </trkpt>
      <trkpt lat="59.819981219455" lon="16.988711103605">
        <ele>49</ele>
        <time>2019-10-26T16:57:00Z</time>
      </trkpt>
      <trkpt lat="59.820033773968" lon="16.989071692943">
        <ele>45.6</ele>
        <time>2019-10-26T16:57:08Z</time>
      </trkpt>
      <trkpt lat="59.820060344591" lon="16.989245617368">
        <ele>44.6</ele>
        <time>2019-10-26T16:57:12Z</time>
      </trkpt>
      <trkpt lat="59.820153886595" lon="16.989263973729">
        <ele>43.2</ele>
        <time>2019-10-26T16:57:16Z</time>
      </trkpt>
      <trkpt lat="59.820341054422" lon="16.989159367617">
        <ele>39.6</ele>
        <time>2019-10-26T16:57:24Z</time>
      </trkpt>
      <trkpt lat="59.820524198937" lon="16.989059874464">
        <ele>37</ele>
        <time>2019-10-26T16:57:32Z</time>
      </trkpt>
      <trkpt lat="59.82070751109" lon="16.988982593346">
        <ele>36.6</ele>
        <time>2019-10-26T16:57:40Z</time>
      </trkpt>
      <trkpt lat="59.82088939832" lon="16.988888129333">
        <ele>36.2</ele>
        <time>2019-10-26T16:57:48Z</time>
      </trkpt>
      <trkpt lat="59.821075895595" lon="16.988797940089">
        <ele>36.4</ele>
        <time>2019-10-26T16:57:56Z</time>
      </trkpt>
      <trkpt lat="59.821263817793" lon="16.988714624003">
        <ele>37</ele>
        <time>2019-10-26T16:58:04Z</time>
      </trkpt>
      <trkpt lat="59.821442100806" lon="16.988629882994">
        <ele>36.6</ele>
        <time>2019-10-26T16:58:12Z</time>
      </trkpt>
      <trkpt lat="59.821623820398" lon="16.988523265226">
        <ele>36.8</ele>
        <time>2019-10-26T16:58:20Z</time>
      </trkpt>
      <trkpt lat="59.8218047018" lon="16.988381443478">
        <ele>37</ele>
        <time>2019-10-26T16:58:28Z</time>
      </trkpt>
      <trkpt lat="59.821986337573" lon="16.988279100479">
        <ele>36.8</ele>
        <time>2019-10-26T16:58:36Z</time>
      </trkpt>
      <trkpt lat="59.822170907011" lon="16.988165358096">
        <ele>37.2</ele>
        <time>2019-10-26T16:58:44Z</time>
      </trkpt>
      <trkpt lat="59.82235287806" lon="16.988053292093">
        <ele>38</ele>
        <time>2019-10-26T16:58:52Z</time>
      </trkpt>
      <trkpt lat="59.822532083082" lon="16.987950949094">
        <ele>38.8</ele>
        <time>2019-10-26T16:59:00Z</time>
      </trkpt>
      <trkpt lat="59.822712964484" lon="16.987848354638">
        <ele>39.6</ele>
        <time>2019-10-26T16:59:08Z</time>
      </trkpt>
      <trkpt lat="59.822896947189" lon="16.987739976671">
        <ele>39.6</ele>
        <time>2019-10-26T16:59:16Z</time>
      </trkpt>
      <trkpt lat="59.823080259342" lon="16.987629084134">
        <ele>40</ele>
        <time>2019-10-26T16:59:24Z</time>
      </trkpt>
      <trkpt lat="59.82326566697" lon="16.987505199652">
        <ele>40.6</ele>
        <time>2019-10-26T16:59:32Z</time>
      </trkpt>
      <trkpt lat="59.823453924444" lon="16.987394474753">
        <ele>41</ele>
        <time>2019-10-26T16:59:40Z</time>
      </trkpt>
      <trkpt lat="59.823637571873" lon="16.987267237511">
        <ele>40.4</ele>
        <time>2019-10-26T16:59:48Z</time>
      </trkpt>
      <trkpt lat="59.823825242614" lon="16.987149807092">
        <ele>40.2</ele>
        <time>2019-10-26T16:59:56Z</time>
      </trkpt>
      <trkpt lat="59.824014254459" lon="16.987058863477">
        <ele>40</ele>
        <time>2019-10-26T17:00:04Z</time>
      </trkpt>
      <trkpt lat="59.824205613236" lon="16.986966327301">
        <ele>40</ele>
        <time>2019-10-26T17:00:12Z</time>
      </trkpt>
      <trkpt lat="59.824396720556" lon="16.986874796953">
        <ele>40.8</ele>
        <time>2019-10-26T17:00:20Z</time>
      </trkpt>
      <trkpt lat="59.824588749885" lon="16.986793911618">
        <ele>41.2</ele>
        <time>2019-10-26T17:00:28Z</time>
      </trkpt>
      <trkpt lat="59.824781365947" lon="16.986713948292">
        <ele>41.2</ele>
        <time>2019-10-26T17:00:36Z</time>
      </trkpt>
      <trkpt lat="59.824970880706" lon="16.986614119863">
        <ele>41.2</ele>
        <time>2019-10-26T17:00:44Z</time>
      </trkpt>
      <trkpt lat="59.825161317474" lon="16.986475986151">
        <ele>40</ele>
        <time>2019-10-26T17:00:52Z</time>
      </trkpt>
      <trkpt lat="59.825351251328" lon="16.986383785251">
        <ele>39.4</ele>
        <time>2019-10-26T17:01:00Z</time>
      </trkpt>
      <trkpt lat="59.825541017544" lon="16.986276999845">
        <ele>39</ele>
        <time>2019-10-26T17:01:08Z</time>
      </trkpt>
      <trkpt lat="59.825717205082" lon="16.9862053346">
        <ele>39.2</ele>
        <time>2019-10-26T17:01:15Z</time>
      </trkpt>
      <trkpt lat="59.825913257723" lon="16.986095028796">
        <ele>39.4</ele>
        <time>2019-10-26T17:01:23Z</time>
      </trkpt>
      <trkpt lat="59.826085421949" lon="16.985978017472">
        <ele>39.6</ele>
        <time>2019-10-26T17:01:30Z</time>
      </trkpt>
      <trkpt lat="59.82625465251" lon="16.985845331995">
        <ele>38.8</ele>
        <time>2019-10-26T17:01:37Z</time>
      </trkpt>
      <trkpt lat="59.826451291884" lon="16.985737121666">
        <ele>38.8</ele>
        <time>2019-10-26T17:01:45Z</time>
      </trkpt>
      <trkpt lat="59.826795620336" lon="16.985792442206">
        <ele>37.6</ele>
        <time>2019-10-26T17:01:58Z</time>
      </trkpt>
      <trkpt lat="59.826984632181" lon="16.98584323652">
        <ele>37.8</ele>
        <time>2019-10-26T17:02:05Z</time>
      </trkpt>
      <trkpt lat="59.827170542723" lon="16.985882547631">
        <ele>36.8</ele>
        <time>2019-10-26T17:02:12Z</time>
      </trkpt>
      <trkpt lat="59.827198538269" lon="16.985899143793">
        <ele>36.8</ele>
        <time>2019-10-26T17:02:13Z</time>
      </trkpt>
      <trkpt lat="59.827409175416" lon="16.985919260353">
        <ele>36.2</ele>
        <time>2019-10-26T17:04:34Z</time>
      </trkpt>
      <trkpt lat="59.827591649379" lon="16.985754723656">
        <ele>36.2</ele>
        <time>2019-10-26T17:04:42Z</time>
      </trkpt>
      <trkpt lat="59.827749229099" lon="16.98556160468">
        <ele>36.8</ele>
        <time>2019-10-26T17:04:49Z</time>
      </trkpt>
      <trkpt lat="59.827908904294" lon="16.985357589234">
        <ele>36.8</ele>
        <time>2019-10-26T17:04:56Z</time>
      </trkpt>
      <trkpt lat="59.828056174277" lon="16.985150723942">
        <ele>36.6</ele>
        <time>2019-10-26T17:05:03Z</time>
      </trkpt>
      <trkpt lat="59.828215011282" lon="16.98496984254">
        <ele>35.4</ele>
        <time>2019-10-26T17:05:10Z</time>
      </trkpt>
      <trkpt lat="59.828364125283" lon="16.984970513092">
        <ele>35.6</ele>
        <time>2019-10-26T17:05:17Z</time>
      </trkpt>
      <trkpt lat="59.828435287614" lon="16.985307549291">
        <ele>36.6</ele>
        <time>2019-10-26T17:05:24Z</time>
      </trkpt>
      <trkpt lat="59.828434365605" lon="16.985553641875">
        <ele>37</ele>
        <time>2019-10-26T17:05:29Z</time>
      </trkpt>
      <trkpt lat="59.828352390623" lon="16.985689680112">
        <ele>37.6</ele>
        <time>2019-10-26T17:05:33Z</time>
      </trkpt>
      <trkpt lat="59.828175951628" lon="16.985902999467">
        <ele>39.2</ele>
        <time>2019-10-26T17:05:41Z</time>
      </trkpt>
      <trkpt lat="59.828006888705" lon="16.986071308019">
        <ele>41.2</ele>
        <time>2019-10-26T17:05:48Z</time>
      </trkpt>
      <trkpt lat="59.827825839665" lon="16.986253027611">
        <ele>42.8</ele>
        <time>2019-10-26T17:05:56Z</time>
      </trkpt>
      <trkpt lat="59.82765945895" lon="16.986411361702">
        <ele>43.8</ele>
        <time>2019-10-26T17:06:03Z</time>
      </trkpt>
      <trkpt lat="59.827490312208" lon="16.986558044952">
        <ele>42.6</ele>
        <time>2019-10-26T17:06:10Z</time>
      </trkpt>
      <trkpt lat="59.827439434075" lon="16.986886950708">
        <ele>43.2</ele>
        <time>2019-10-26T17:06:19Z</time>
      </trkpt>
      <trkpt lat="59.827557367408" lon="16.987176880629">
        <ele>43</ele>
        <time>2019-10-26T17:06:27Z</time>
      </trkpt>
      <trkpt lat="59.827566922774" lon="16.987223483993">
        <ele>43.2</ele>
        <time>2019-10-26T17:06:28Z</time>
      </trkpt>
      <trkpt lat="59.827633055965" lon="16.987488184395">
        <ele>44.4</ele>
        <time>2019-10-26T17:06:34Z</time>
      </trkpt>
      <trkpt lat="59.827732632937" lon="16.987826813155">
        <ele>44.8</ele>
        <time>2019-10-26T17:06:42Z</time>
      </trkpt>
      <trkpt lat="59.827810919883" lon="16.988176003109">
        <ele>41.4</ele>
        <time>2019-10-26T17:06:50Z</time>
      </trkpt>
      <trkpt lat="59.827929020854" lon="16.988476075129">
        <ele>41.8</ele>
        <time>2019-10-26T17:06:58Z</time>
      </trkpt>
      <trkpt lat="59.828031699129" lon="16.988805148523">
        <ele>43.8</ele>
        <time>2019-10-26T17:07:06Z</time>
      </trkpt>
      <trkpt lat="59.828121720735" lon="16.98911636847">
        <ele>43.8</ele>
        <time>2019-10-26T17:07:14Z</time>
      </trkpt>
      <trkpt lat="59.828286257432" lon="16.989187195525">
        <ele>43</ele>
        <time>2019-10-26T17:07:24Z</time>
      </trkpt>
      <trkpt lat="59.828471162146" lon="16.989091641865">
        <ele>43.4</ele>
        <time>2019-10-26T17:07:33Z</time>
      </trkpt>
      <trkpt lat="59.828660173991" lon="16.988949820117">
        <ele>43.2</ele>
        <time>2019-10-26T17:07:42Z</time>
      </trkpt>
      <trkpt lat="59.828841139212" lon="16.988853512086">
        <ele>43.2</ele>
        <time>2019-10-26T17:07:50Z</time>
      </trkpt>
      <trkpt lat="59.828923114194" lon="16.988850829878">
        <ele>43.4</ele>
        <time>2019-10-26T17:07:55Z</time>
      </trkpt>
      <trkpt lat="59.828864859989" lon="16.988264013059">
        <ele>37</ele>
        <time>2019-10-26T17:10:09Z</time>
      </trkpt>
      <trkpt lat="59.82872898939" lon="16.988500969372">
        <ele>38.2</ele>
        <time>2019-10-26T17:10:18Z</time>
      </trkpt>
      <trkpt lat="59.828577360819" lon="16.988730465794">
        <ele>41.6</ele>
        <time>2019-10-26T17:10:26Z</time>
      </trkpt>
      <trkpt lat="59.828412405027" lon="16.988925764064">
        <ele>44</ele>
        <time>2019-10-26T17:10:34Z</time>
      </trkpt>
      <trkpt lat="59.828257256058" lon="16.98916917444">
        <ele>45.2</ele>
        <time>2019-10-26T17:10:43Z</time>
      </trkpt>
      <trkpt lat="59.828138819811" lon="16.989273193819">
        <ele>44.4</ele>
        <time>2019-10-26T17:10:51Z</time>
      </trkpt>
      <trkpt lat="59.828016108795" lon="16.988996423481">
        <ele>41.2</ele>
        <time>2019-10-26T17:10:59Z</time>
      </trkpt>
      <trkpt lat="59.827910664493" lon="16.988664667879">
        <ele>38.4</ele>
        <time>2019-10-26T17:11:07Z</time>
      </trkpt>
      <trkpt lat="59.827814356462" lon="16.988329140422">
        <ele>37.4</ele>
        <time>2019-10-26T17:11:15Z</time>
      </trkpt>
      <trkpt lat="59.827721149734" lon="16.987993696784">
        <ele>37.4</ele>
        <time>2019-10-26T17:11:23Z</time>
      </trkpt>
      <trkpt lat="59.82762425497" lon="16.987645596477">
        <ele>36.6</ele>
        <time>2019-10-26T17:11:31Z</time>
      </trkpt>
      <trkpt lat="59.827533311355" lon="16.987332783969">
        <ele>36</ele>
        <time>2019-10-26T17:11:38Z</time>
      </trkpt>
      <trkpt lat="59.827448989441" lon="16.987004716403">
        <ele>35.2</ele>
        <time>2019-10-26T17:11:45Z</time>
      </trkpt>
      <trkpt lat="59.827392495435" lon="16.986715037939">
        <ele>34.8</ele>
        <time>2019-10-26T17:11:51Z</time>
      </trkpt>
      <trkpt lat="59.827512105148" lon="16.986413457177">
        <ele>34.4</ele>
        <time>2019-10-26T17:11:58Z</time>
      </trkpt>
      <trkpt lat="59.827676893302" lon="16.986268366488">
        <ele>34.8</ele>
        <time>2019-10-26T17:12:05Z</time>
      </trkpt>
      <trkpt lat="59.827857942342" lon="16.986108607474">
        <ele>35</ele>
        <time>2019-10-26T17:12:13Z</time>
      </trkpt>
      <trkpt lat="59.828033878423" lon="16.985949770469">
        <ele>35</ele>
        <time>2019-10-26T17:12:21Z</time>
      </trkpt>
      <trkpt lat="59.828207383753" lon="16.985781461917">
        <ele>34.8</ele>
        <time>2019-10-26T17:12:29Z</time>
      </trkpt>
      <trkpt lat="59.828440903487" lon="16.985436462913">
        <ele>35</ele>
        <time>2019-10-26T17:12:42Z</time>
      </trkpt>
      <trkpt lat="59.828363873826" lon="16.985111245193">
        <ele>34</ele>
        <time>2019-10-26T17:12:50Z</time>
      </trkpt>
      <trkpt lat="59.828337470841" lon="16.985003286321">
        <ele>34</ele>
        <time>2019-10-26T17:12:53Z</time>
      </trkpt>
      <trkpt lat="59.828373764468" lon="16.984850316646">
        <ele>34</ele>
        <time>2019-10-26T17:13:01Z</time>
      </trkpt>
      <trkpt lat="59.828552298938" lon="16.984691647279">
        <ele>33</ele>
        <time>2019-10-26T17:13:09Z</time>
      </trkpt>
      <trkpt lat="59.828716667997" lon="16.984511855524">
        <ele>34</ele>
        <time>2019-10-26T17:13:17Z</time>
      </trkpt>
      <trkpt lat="59.828878103391" lon="16.984287304423">
        <ele>34</ele>
        <time>2019-10-26T17:13:25Z</time>
      </trkpt>
      <trkpt lat="59.829007017013" lon="16.984035679785">
        <ele>35.6</ele>
        <time>2019-10-26T17:13:32Z</time>
      </trkpt>
      <trkpt lat="59.829121597586" lon="16.983753042117">
        <ele>35.6</ele>
        <time>2019-10-26T17:13:39Z</time>
      </trkpt>
      <trkpt lat="59.829245062973" lon="16.983448108595">
        <ele>36.2</ele>
        <time>2019-10-26T17:13:47Z</time>
      </trkpt>
      <trkpt lat="59.8293651756" lon="16.983154574457">
        <ele>35.8</ele>
        <time>2019-10-26T17:13:55Z</time>
      </trkpt>
      <trkpt lat="59.829499621276" lon="16.98286263288">
        <ele>35.4</ele>
        <time>2019-10-26T17:14:03Z</time>
      </trkpt>
      <trkpt lat="59.829643622318" lon="16.982581587773">
        <ele>35.2</ele>
        <time>2019-10-26T17:14:11Z</time>
      </trkpt>
      <trkpt lat="59.829794999432" lon="16.982382433829">
        <ele>34.8</ele>
        <time>2019-10-26T17:14:18Z</time>
      </trkpt>
      <trkpt lat="59.829969091495" lon="16.98217531708">
        <ele>35.2</ele>
        <time>2019-10-26T17:14:26Z</time>
      </trkpt>
      <trkpt lat="59.830138992608" lon="16.981993262212">
        <ele>36</ele>
        <time>2019-10-26T17:14:34Z</time>
      </trkpt>
      <trkpt lat="59.830304870409" lon="16.981808441317">
        <ele>35.6</ele>
        <time>2019-10-26T17:14:42Z</time>
      </trkpt>
      <trkpt lat="59.830471251124" lon="16.981625212983">
        <ele>35</ele>
        <time>2019-10-26T17:14:50Z</time>
      </trkpt>
      <trkpt lat="59.830637967115" lon="16.981450785644">
        <ele>34.8</ele>
        <time>2019-10-26T17:14:58Z</time>
      </trkpt>
      <trkpt lat="59.83080015688" lon="16.981279208151">
        <ele>34.8</ele>
        <time>2019-10-26T17:15:06Z</time>
      </trkpt>
      <trkpt lat="59.830962346645" lon="16.981098410568">
        <ele>35.6</ele>
        <time>2019-10-26T17:15:14Z</time>
      </trkpt>
      <trkpt lat="59.831128894998" lon="16.980913505854">
        <ele>36.4</ele>
        <time>2019-10-26T17:15:22Z</time>
      </trkpt>
      <trkpt lat="59.831293766971" lon="16.9806984263">
        <ele>37.2</ele>
        <time>2019-10-26T17:15:30Z</time>
      </trkpt>
      <trkpt lat="59.831466015016" lon="16.980503547125">
        <ele>37.2</ele>
        <time>2019-10-26T17:15:38Z</time>
      </trkpt>
      <trkpt lat="59.831644130391" lon="16.980314032366">
        <ele>37.4</ele>
        <time>2019-10-26T17:15:46Z</time>
      </trkpt>
      <trkpt lat="59.831822664861" lon="16.980159637768">
        <ele>37.4</ele>
        <time>2019-10-26T17:15:54Z</time>
      </trkpt>
      <trkpt lat="59.832003965358" lon="16.980042710263">
        <ele>38.2</ele>
        <time>2019-10-26T17:16:02Z</time>
      </trkpt>
      <trkpt lat="59.832184427665" lon="16.979932488278">
        <ele>39.4</ele>
        <time>2019-10-26T17:16:10Z</time>
      </trkpt>
      <trkpt lat="59.832361453393" lon="16.979842969586">
        <ele>40.8</ele>
        <time>2019-10-26T17:16:18Z</time>
      </trkpt>
      <trkpt lat="59.832543843537" lon="16.979769125047">
        <ele>41</ele>
        <time>2019-10-26T17:16:26Z</time>
      </trkpt>
      <trkpt lat="59.832594805489" lon="16.979765688468">
        <ele>40</ele>
        <time>2019-10-26T17:16:30Z</time>
      </trkpt>
      <trkpt lat="59.832432448086" lon="16.979860990671">
        <ele>38.8</ele>
        <time>2019-10-26T17:16:37Z</time>
      </trkpt>
      <trkpt lat="59.83224687282" lon="16.979943552386">
        <ele>38.2</ele>
        <time>2019-10-26T17:16:44Z</time>
      </trkpt>
      <trkpt lat="59.832066997246" lon="16.98005218181">
        <ele>37.8</ele>
        <time>2019-10-26T17:16:51Z</time>
      </trkpt>
      <trkpt lat="59.831876560478" lon="16.980191740445">
        <ele>38</ele>
        <time>2019-10-26T17:16:59Z</time>
      </trkpt>
      <trkpt lat="59.83169450561" lon="16.980350661269">
        <ele>40.2</ele>
        <time>2019-10-26T17:17:07Z</time>
      </trkpt>
      <trkpt lat="59.831516138778" lon="16.980537410001">
        <ele>39.8</ele>
        <time>2019-10-26T17:17:15Z</time>
      </trkpt>
      <trkpt lat="59.831338610136" lon="16.980735641936">
        <ele>39</ele>
        <time>2019-10-26T17:17:23Z</time>
      </trkpt>
      <trkpt lat="59.831180778959" lon="16.980925659609">
        <ele>39.4</ele>
        <time>2019-10-26T17:17:30Z</time>
      </trkpt>
      <trkpt lat="59.8310247918" lon="16.981127328123">
        <ele>40.4</ele>
        <time>2019-10-26T17:17:37Z</time>
      </trkpt>
      <trkpt lat="59.830869475193" lon="16.981308712439">
        <ele>38.4</ele>
        <time>2019-10-26T17:17:44Z</time>
      </trkpt>
      <trkpt lat="59.830689934895" lon="16.981498394836">
        <ele>38</ele>
        <time>2019-10-26T17:17:52Z</time>
      </trkpt>
      <trkpt lat="59.830521626343" lon="16.981676007297">
        <ele>37.2</ele>
        <time>2019-10-26T17:18:00Z</time>
      </trkpt>
      <trkpt lat="59.830344516796" lon="16.981874993603">
        <ele>37.4</ele>
        <time>2019-10-26T17:18:08Z</time>
      </trkpt>
      <trkpt lat="59.830177130253" lon="16.982070962425">
        <ele>36.8</ele>
        <time>2019-10-26T17:18:16Z</time>
      </trkpt>
      <trkpt lat="59.830007564416" lon="16.982266931247">
        <ele>35.6</ele>
        <time>2019-10-26T17:18:24Z</time>
      </trkpt>
      <trkpt lat="59.829833053258" lon="16.982466755743">
        <ele>34.2</ele>
        <time>2019-10-26T17:18:32Z</time>
      </trkpt>
      <trkpt lat="59.829678323384" lon="16.982653253018">
        <ele>34.6</ele>
        <time>2019-10-26T17:18:39Z</time>
      </trkpt>
      <trkpt lat="59.829433655723" lon="16.983097996632">
        <ele>33.8</ele>
        <time>2019-10-26T17:18:52Z</time>
      </trkpt>
      <trkpt lat="59.829300886427" lon="16.983408126932">
        <ele>33.4</ele>
        <time>2019-10-26T17:19:00Z</time>
      </trkpt>
      <trkpt lat="59.829167195122" lon="16.983707863676">
        <ele>33.8</ele>
        <time>2019-10-26T17:19:08Z</time>
      </trkpt>
      <trkpt lat="59.829034342007" lon="16.984005253488">
        <ele>33.4</ele>
        <time>2019-10-26T17:19:16Z</time>
      </trkpt>
      <trkpt lat="59.828920599624" lon="16.984314042684">
        <ele>34</ele>
        <time>2019-10-26T17:19:24Z</time>
      </trkpt>
      <trkpt lat="59.828789003794" lon="16.984581928208">
        <ele>35</ele>
        <time>2019-10-26T17:19:32Z</time>
      </trkpt>
      <trkpt lat="59.828608541487" lon="16.984757864289">
        <ele>34.2</ele>
        <time>2019-10-26T17:19:40Z</time>
      </trkpt>
      <trkpt lat="59.828417937081" lon="16.984900524227">
        <ele>33</ele>
        <time>2019-10-26T17:19:48Z</time>
      </trkpt>
      <trkpt lat="59.828243928837" lon="16.985065647657">
        <ele>32.8</ele>
        <time>2019-10-26T17:19:56Z</time>
      </trkpt>
      <trkpt lat="59.828079224502" lon="16.985224903757">
        <ele>33.2</ele>
        <time>2019-10-26T17:20:03Z</time>
      </trkpt>
      <trkpt lat="59.827927595931" lon="16.985438223112">
        <ele>33.8</ele>
        <time>2019-10-26T17:20:10Z</time>
      </trkpt>
      <trkpt lat="59.827783008156" lon="16.985662019842">
        <ele>33.4</ele>
        <time>2019-10-26T17:20:17Z</time>
      </trkpt>
      <trkpt lat="59.827622075676" lon="16.985837872104">
        <ele>34.6</ele>
        <time>2019-10-26T17:20:24Z</time>
      </trkpt>
      <trkpt lat="59.827440188446" lon="16.986012467081">
        <ele>35.4</ele>
        <time>2019-10-26T17:20:32Z</time>
      </trkpt>
      <trkpt lat="59.827262324528" lon="16.986076588616">
        <ele>36</ele>
        <time>2019-10-26T17:20:39Z</time>
      </trkpt>
      <trkpt lat="59.827062332394" lon="16.986016155117">
        <ele>34.4</ele>
        <time>2019-10-26T17:20:47Z</time>
      </trkpt>
      <trkpt lat="59.826863094631" lon="16.985944573691">
        <ele>34.8</ele>
        <time>2019-10-26T17:20:55Z</time>
      </trkpt>
      <trkpt lat="59.826672154949" lon="16.985887995866">
        <ele>35.8</ele>
        <time>2019-10-26T17:21:03Z</time>
      </trkpt>
      <trkpt lat="59.826474928842" lon="16.985829238747">
        <ele>34.6</ele>
        <time>2019-10-26T17:21:11Z</time>
      </trkpt>
      <trkpt lat="59.826293795983" lon="16.985866873478">
        <ele>33</ele>
        <time>2019-10-26T17:21:18Z</time>
      </trkpt>
      <trkpt lat="59.826110064735" lon="16.985981370232">
        <ele>32.6</ele>
        <time>2019-10-26T17:21:25Z</time>
      </trkpt>
      <trkpt lat="59.825923064546" lon="16.986106679637">
        <ele>34.4</ele>
        <time>2019-10-26T17:21:33Z</time>
      </trkpt>
      <trkpt lat="59.825740506764" lon="16.986219164735">
        <ele>33.6</ele>
        <time>2019-10-26T17:21:41Z</time>
      </trkpt>
      <trkpt lat="59.825560715009" lon="16.986333074756">
        <ele>34.4</ele>
        <time>2019-10-26T17:21:49Z</time>
      </trkpt>
      <trkpt lat="59.825363740359" lon="16.986435082479">
        <ele>33.8</ele>
        <time>2019-10-26T17:21:57Z</time>
      </trkpt>
      <trkpt lat="59.825172465401" lon="16.98653390508">
        <ele>33.4</ele>
        <time>2019-10-26T17:22:05Z</time>
      </trkpt>
      <trkpt lat="59.824981190443" lon="16.986609593637">
        <ele>34</ele>
        <time>2019-10-26T17:22:13Z</time>
      </trkpt>
      <trkpt lat="59.824787484734" lon="16.986716881957">
        <ele>35.2</ele>
        <time>2019-10-26T17:22:21Z</time>
      </trkpt>
      <trkpt lat="59.824593779025" lon="16.986830875797">
        <ele>35</ele>
        <time>2019-10-26T17:22:29Z</time>
      </trkpt>
      <trkpt lat="59.824401079144" lon="16.986922573783">
        <ele>33.2</ele>
        <time>2019-10-26T17:22:37Z</time>
      </trkpt>
      <trkpt lat="59.824209720367" lon="16.987019803823">
        <ele>32.4</ele>
        <time>2019-10-26T17:22:45Z</time>
      </trkpt>
      <trkpt lat="59.824033868105" lon="16.9870854341">
        <ele>32.2</ele>
        <time>2019-10-26T17:22:52Z</time>
      </trkpt>
      <trkpt lat="59.823861536241" lon="16.987205882003">
        <ele>32.4</ele>
        <time>2019-10-26T17:22:59Z</time>
      </trkpt>
      <trkpt lat="59.823677637355" lon="16.987313924694">
        <ele>34</ele>
        <time>2019-10-26T17:23:06Z</time>
      </trkpt>
      <trkpt lat="59.823497426505" lon="16.9874374739">
        <ele>36.6</ele>
        <time>2019-10-26T17:23:13Z</time>
      </trkpt>
      <trkpt lat="59.823324591727" lon="16.987546103324">
        <ele>36.6</ele>
        <time>2019-10-26T17:23:20Z</time>
      </trkpt>
      <trkpt lat="59.823131640389" lon="16.98766797615">
        <ele>37.6</ele>
        <time>2019-10-26T17:23:28Z</time>
      </trkpt>
      <trkpt lat="59.82295637486" lon="16.987776689393">
        <ele>37</ele>
        <time>2019-10-26T17:23:35Z</time>
      </trkpt>
      <trkpt lat="59.822780690236" lon="16.987878697116">
        <ele>35.2</ele>
        <time>2019-10-26T17:23:42Z</time>
      </trkpt>
      <trkpt lat="59.822587068346" lon="16.987989505834">
        <ele>34.4</ele>
        <time>2019-10-26T17:23:50Z</time>
      </trkpt>
      <trkpt lat="59.822404175288" lon="16.988101571837">
        <ele>32.6</ele>
        <time>2019-10-26T17:23:57Z</time>
      </trkpt>
      <trkpt lat="59.82222631137" lon="16.98818597757">
        <ele>31.4</ele>
        <time>2019-10-26T17:24:04Z</time>
      </trkpt>
      <trkpt lat="59.82205196785" lon="16.988291170415">
        <ele>30.2</ele>
        <time>2019-10-26T17:24:11Z</time>
      </trkpt>
      <trkpt lat="59.821863458919" lon="16.988427543928">
        <ele>30.4</ele>
        <time>2019-10-26T17:24:19Z</time>
      </trkpt>
      <trkpt lat="59.821690205046" lon="16.988539945207">
        <ele>30.6</ele>
        <time>2019-10-26T17:24:26Z</time>
      </trkpt>
      <trkpt lat="59.821491302559" lon="16.988639773636">
        <ele>32.4</ele>
        <time>2019-10-26T17:24:34Z</time>
      </trkpt>
      <trkpt lat="59.821253424237" lon="16.988737925685">
        <ele>31.8</ele>
        <time>2019-10-26T17:24:43Z</time>
      </trkpt>
      <trkpt lat="59.821073045749" lon="16.988826773825">
        <ele>32.4</ele>
        <time>2019-10-26T17:24:50Z</time>
      </trkpt>
      <trkpt lat="59.820873807986" lon="16.988932972498">
        <ele>32.6</ele>
        <time>2019-10-26T17:24:58Z</time>
      </trkpt>
      <trkpt lat="59.820680018458" lon="16.98903254947">
        <ele>31.6</ele>
        <time>2019-10-26T17:25:06Z</time>
      </trkpt>
      <trkpt lat="59.8204887435" lon="16.989141681808">
        <ele>32.2</ele>
        <time>2019-10-26T17:25:14Z</time>
      </trkpt>
      <trkpt lat="59.820288583728" lon="16.989233379794">
        <ele>32</ele>
        <time>2019-10-26T17:25:22Z</time>
      </trkpt>
      <trkpt lat="59.820112060914" lon="16.989321473563">
        <ele>30.4</ele>
        <time>2019-10-26T17:25:29Z</time>
      </trkpt>
      <trkpt lat="59.819932269159" lon="16.989403364726">
        <ele>28.8</ele>
        <time>2019-10-26T17:25:36Z</time>
      </trkpt>
      <trkpt lat="59.819747280626" lon="16.989506629734">
        <ele>28.2</ele>
        <time>2019-10-26T17:25:43Z</time>
      </trkpt>
      <trkpt lat="59.819550725071" lon="16.989597405711">
        <ele>28.6</ele>
        <time>2019-10-26T17:25:51Z</time>
      </trkpt>
      <trkpt lat="59.819374956628" lon="16.989689103697">
        <ele>30.2</ele>
        <time>2019-10-26T17:25:58Z</time>
      </trkpt>
      <trkpt lat="59.819192566484" lon="16.989780717864">
        <ele>32.8</ele>
        <time>2019-10-26T17:26:06Z</time>
      </trkpt>
      <trkpt lat="59.819012942367" lon="16.989850119996">
        <ele>32.2</ele>
        <time>2019-10-26T17:26:13Z</time>
      </trkpt>
      <trkpt lat="59.818827115644" lon="16.989955564298">
        <ele>31</ele>
        <time>2019-10-26T17:26:20Z</time>
      </trkpt>
      <trkpt lat="59.818653694133" lon="16.990061511514">
        <ele>29.4</ele>
        <time>2019-10-26T17:26:27Z</time>
      </trkpt>
      <trkpt lat="59.81847289655" lon="16.99020182452">
        <ele>28</ele>
        <time>2019-10-26T17:26:35Z</time>
      </trkpt>
      <trkpt lat="59.818304085084" lon="16.990395530229">
        <ele>29.6</ele>
        <time>2019-10-26T17:26:43Z</time>
      </trkpt>
      <trkpt lat="59.818173243625" lon="16.990674647499">
        <ele>29</ele>
        <time>2019-10-26T17:26:51Z</time>
      </trkpt>
      <trkpt lat="59.818164945544" lon="16.991080331459">
        <ele>30.2</ele>
        <time>2019-10-26T17:26:59Z</time>
      </trkpt>
      <trkpt lat="59.818118761275" lon="16.991455672941">
        <ele>29.8</ele>
        <time>2019-10-26T17:27:06Z</time>
      </trkpt>
      <trkpt lat="59.818034439361" lon="16.991817938659">
        <ele>29.4</ele>
        <time>2019-10-26T17:27:13Z</time>
      </trkpt>
      <trkpt lat="59.817941064995" lon="16.992136450859">
        <ele>28.4</ele>
        <time>2019-10-26T17:27:20Z</time>
      </trkpt>
      <trkpt lat="59.817832938485" lon="16.992470050479">
        <ele>28.4</ele>
        <time>2019-10-26T17:27:27Z</time>
      </trkpt>
      <trkpt lat="59.817690110909" lon="16.992718741452">
        <ele>29.2</ele>
        <time>2019-10-26T17:27:34Z</time>
      </trkpt>
      <trkpt lat="59.817531441542" lon="16.992904735813">
        <ele>30.6</ele>
        <time>2019-10-26T17:27:41Z</time>
      </trkpt>
      <trkpt lat="59.817367491578" lon="16.99309609459">
        <ele>30.8</ele>
        <time>2019-10-26T17:27:48Z</time>
      </trkpt>
      <trkpt lat="59.817230615151" lon="16.993333050903">
        <ele>30</ele>
        <time>2019-10-26T17:27:55Z</time>
      </trkpt>
      <trkpt lat="59.817089380136" lon="16.993552824321">
        <ele>30.2</ele>
        <time>2019-10-26T17:28:02Z</time>
      </trkpt>
      <trkpt lat="59.816905397431" lon="16.993720378502">
        <ele>31.6</ele>
        <time>2019-10-26T17:28:10Z</time>
      </trkpt>
      <trkpt lat="59.816724013115" lon="16.993902014275">
        <ele>33</ele>
        <time>2019-10-26T17:28:18Z</time>
      </trkpt>
      <trkpt lat="59.816552770898" lon="16.994076609252">
        <ele>34.4</ele>
        <time>2019-10-26T17:28:27Z</time>
      </trkpt>
      <trkpt lat="59.816371470401" lon="16.994247851469">
        <ele>34.2</ele>
        <time>2019-10-26T17:28:35Z</time>
      </trkpt>
      <trkpt lat="59.816183967298" lon="16.994392187787">
        <ele>34.6</ele>
        <time>2019-10-26T17:28:42Z</time>
      </trkpt>
      <trkpt lat="59.816008785588" lon="16.994541888521">
        <ele>33</ele>
        <time>2019-10-26T17:28:49Z</time>
      </trkpt>
      <trkpt lat="59.815820779571" lon="16.994694858196">
        <ele>32.6</ele>
        <time>2019-10-26T17:28:57Z</time>
      </trkpt>
      <trkpt lat="59.815643334748" lon="16.994825615836">
        <ele>31.8</ele>
        <time>2019-10-26T17:29:04Z</time>
      </trkpt>
      <trkpt lat="59.815456753654" lon="16.99499124218">
        <ele>30.4</ele>
        <time>2019-10-26T17:29:12Z</time>
      </trkpt>
      <trkpt lat="59.815284840885" lon="16.995211267055">
        <ele>29.6</ele>
        <time>2019-10-26T17:29:20Z</time>
      </trkpt>
      <trkpt lat="59.815126171518" lon="16.995455934716">
        <ele>29.8</ele>
        <time>2019-10-26T17:29:28Z</time>
      </trkpt>
      <trkpt lat="59.814969178531" lon="16.995694064495">
        <ele>29.2</ele>
        <time>2019-10-26T17:29:36Z</time>
      </trkpt>
      <trkpt lat="59.814819729254" lon="16.9959115748">
        <ele>27.8</ele>
        <time>2019-10-26T17:29:43Z</time>
      </trkpt>
      <trkpt lat="59.814659299688" lon="16.996110561106">
        <ele>26.4</ele>
        <time>2019-10-26T17:29:50Z</time>
      </trkpt>
      <trkpt lat="59.814497193742" lon="16.99633821351">
        <ele>27.6</ele>
        <time>2019-10-26T17:29:58Z</time>
      </trkpt>
      <trkpt lat="59.814320670928" lon="16.996534098513">
        <ele>30.2</ele>
        <time>2019-10-26T17:30:06Z</time>
      </trkpt>
      <trkpt lat="59.814130737074" lon="16.996461259802">
        <ele>27.8</ele>
        <time>2019-10-26T17:30:13Z</time>
      </trkpt>
      <trkpt lat="59.814000985262" lon="16.996187506948">
        <ele>27</ele>
        <time>2019-10-26T17:30:20Z</time>
      </trkpt>
      <trkpt lat="59.813889170716" lon="16.995744104438">
        <ele>29.2</ele>
        <time>2019-10-26T17:30:30Z</time>
      </trkpt>
      <trkpt lat="59.813794371427" lon="16.995397429054">
        <ele>31</ele>
        <time>2019-10-26T17:30:38Z</time>
      </trkpt>
      <trkpt lat="59.813704517459" lon="16.995041198304">
        <ele>30.4</ele>
        <time>2019-10-26T17:30:46Z</time>
      </trkpt>
      <trkpt lat="59.813620782278" lon="16.994710197073">
        <ele>28.6</ele>
        <time>2019-10-26T17:30:53Z</time>
      </trkpt>
      <trkpt lat="59.813539813124" lon="16.994390176131">
        <ele>29.8</ele>
        <time>2019-10-26T17:31:00Z</time>
      </trkpt>
      <trkpt lat="59.813527072636" lon="16.994041405272">
        <ele>31.6</ele>
        <time>2019-10-26T17:31:07Z</time>
      </trkpt>
      <trkpt lat="59.813631343472" lon="16.993722976891">
        <ele>34.2</ele>
        <time>2019-10-26T17:31:14Z</time>
      </trkpt>
      <trkpt lat="59.813757491067" lon="16.993445452182">
        <ele>35.4</ele>
        <time>2019-10-26T17:31:21Z</time>
      </trkpt>
      <trkpt lat="59.813898977539" lon="16.993188882223">
        <ele>35.2</ele>
        <time>2019-10-26T17:31:28Z</time>
      </trkpt>
      <trkpt lat="59.81404809154" lon="16.992945974761">
        <ele>33.8</ele>
        <time>2019-10-26T17:31:36Z</time>
      </trkpt>
      <trkpt lat="59.814202402319" lon="16.992730559931">
        <ele>32.4</ele>
        <time>2019-10-26T17:31:44Z</time>
      </trkpt>
      <trkpt lat="59.814369453586" lon="16.992565352682">
        <ele>30.8</ele>
        <time>2019-10-26T17:31:52Z</time>
      </trkpt>
      <trkpt lat="59.814533319731" lon="16.992368797127">
        <ele>29.2</ele>
        <time>2019-10-26T17:32:00Z</time>
      </trkpt>
      <trkpt lat="59.814672878366" lon="16.992078448111">
        <ele>27.8</ele>
        <time>2019-10-26T17:32:08Z</time>
      </trkpt>
      <trkpt lat="59.814763989619" lon="16.991752895115">
        <ele>29.2</ele>
        <time>2019-10-26T17:32:15Z</time>
      </trkpt>
      <trkpt lat="59.81482174091" lon="16.991407393197">
        <ele>29.8</ele>
        <time>2019-10-26T17:32:22Z</time>
      </trkpt>
      <trkpt lat="59.814865829704" lon="16.991022831625">
        <ele>30.8</ele>
        <time>2019-10-26T17:32:30Z</time>
      </trkpt>
      <trkpt lat="59.814905140815" lon="16.990640616985">
        <ele>31.6</ele>
        <time>2019-10-26T17:32:38Z</time>
      </trkpt>
      <trkpt lat="59.814962640649" lon="16.990278770362">
        <ele>33.8</ele>
        <time>2019-10-26T17:32:46Z</time>
      </trkpt>
      <trkpt lat="59.81506733058" lon="16.989956486307">
        <ele>33.8</ele>
        <time>2019-10-26T17:32:55Z</time>
      </trkpt>
      <trkpt lat="59.815168583932" lon="16.989629089293">
        <ele>34.2</ele>
        <time>2019-10-26T17:33:03Z</time>
      </trkpt>
      <trkpt lat="59.815247876706" lon="16.989267326489">
        <ele>35.4</ele>
        <time>2019-10-26T17:33:10Z</time>
      </trkpt>
      <trkpt lat="59.815313506983" lon="16.988892320283">
        <ele>38</ele>
        <time>2019-10-26T17:33:18Z</time>
      </trkpt>
      <trkpt lat="59.81535231518" lon="16.988520499199">
        <ele>38</ele>
        <time>2019-10-26T17:33:26Z</time>
      </trkpt>
      <trkpt lat="59.815399589096" lon="16.988164100811">
        <ele>40</ele>
        <time>2019-10-26T17:33:34Z</time>
      </trkpt>
      <trkpt lat="59.815572004779" lon="16.988047005668">
        <ele>41.4</ele>
        <time>2019-10-26T17:33:43Z</time>
      </trkpt>
      <trkpt lat="59.81575883733" lon="16.987982716495">
        <ele>40</ele>
        <time>2019-10-26T17:33:51Z</time>
      </trkpt>
      <trkpt lat="59.815912812833" lon="16.987775096832">
        <ele>37.4</ele>
        <time>2019-10-26T17:33:58Z</time>
      </trkpt>
      <trkpt lat="59.816045163034" lon="16.987524561841">
        <ele>36.4</ele>
        <time>2019-10-26T17:34:05Z</time>
      </trkpt>
      <trkpt lat="59.816180363081" lon="16.987274278307">
        <ele>33.6</ele>
        <time>2019-10-26T17:34:13Z</time>
      </trkpt>
      <trkpt lat="59.816346995253" lon="16.987138659165">
        <ele>32.8</ele>
        <time>2019-10-26T17:34:20Z</time>
      </trkpt>
      <trkpt lat="59.816534246899" lon="16.986986360042">
        <ele>33.6</ele>
        <time>2019-10-26T17:34:28Z</time>
      </trkpt>
      <trkpt lat="59.816721247088" lon="16.986872785297">
        <ele>34.6</ele>
        <time>2019-10-26T17:34:36Z</time>
      </trkpt>
      <trkpt lat="59.816899194825" lon="16.986793408704">
        <ele>36.4</ele>
        <time>2019-10-26T17:34:42Z</time>
      </trkpt>
      <trkpt lat="59.817091978525" lon="16.986667009652">
        <ele>39.6</ele>
        <time>2019-10-26T17:34:49Z</time>
      </trkpt>
      <trkpt lat="59.81729021046" lon="16.986544466274">
        <ele>42</ele>
        <time>2019-10-26T17:34:57Z</time>
      </trkpt>
      <trkpt lat="59.817476623916" lon="16.986411780797">
        <ele>43.2</ele>
        <time>2019-10-26T17:35:05Z</time>
      </trkpt>
      <trkpt lat="59.817658259689" lon="16.986286303754">
        <ele>41.4</ele>
        <time>2019-10-26T17:35:13Z</time>
      </trkpt>
      <trkpt lat="59.817857748909" lon="16.986187145877">
        <ele>39.2</ele>
        <time>2019-10-26T17:35:21Z</time>
      </trkpt>
      <trkpt lat="59.818032679162" lon="16.986065692146">
        <ele>38.8</ele>
        <time>2019-10-26T17:35:28Z</time>
      </trkpt>
      <trkpt lat="59.818231330192" lon="16.985999056041">
        <ele>39</ele>
        <time>2019-10-26T17:35:36Z</time>
      </trkpt>
      <trkpt lat="59.818431657602" lon="16.985950105745">
        <ele>40.8</ele>
        <time>2019-10-26T17:35:44Z</time>
      </trkpt>
      <trkpt lat="59.818611616995" lon="16.985804512142">
        <ele>42.6</ele>
        <time>2019-10-26T17:35:52Z</time>
      </trkpt>
      <trkpt lat="59.818795683519" lon="16.985660008186">
        <ele>44.4</ele>
        <time>2019-10-26T17:36:00Z</time>
      </trkpt>
      <trkpt lat="59.818966087546" lon="16.985517851162">
        <ele>43.4</ele>
        <time>2019-10-26T17:36:07Z</time>
      </trkpt>
      <trkpt lat="59.819124673094" lon="16.985342334176">
        <ele>42</ele>
        <time>2019-10-26T17:36:14Z</time>
      </trkpt>
      <trkpt lat="59.819247300291" lon="16.985223562653">
        <ele>41.2</ele>
        <time>2019-10-26T17:36:19Z</time>
      </trkpt>
    </trkseg>
  </trk>
</gpx>